sensor_id;sensor_type;location;lat;lon;timestamp;P1;durP1;ratioP1;P2;durP2;ratioP2
13741;SDS011;8461;52.356;10.704;2023-02-15T00:00:01;14.60;;;9.23;;
13741;SDS011;8461;52.356;10.704;2023-02-15T00:02:28;26.03;;;10.60;;
13741;SDS011;8461;52.356;10.704;2023-02-15T00:04:53;30.63;;;10.50;;
13741;SDS011;8461;52.356;10.704;2023-02-15T00:07:20;16.47;;;9.07;;
13741;SDS011;8461;52.356;10.704;2023-02-15T00:09:46;15.77;;;9.80;;
13741;SDS011;8461;52.356;10.704;2023-02-15T00:12:12;19.83;;;10.13;;
13741;SDS011;8461;52.356;10.704;2023-02-15T00:14:38;41.80;;;10.50;;
13741;SDS011;8461;52.356;10.704;2023-02-15T00:17:04;27.07;;;10.00;;
13741;SDS011;8461;52.356;10.704;2023-02-15T00:19:29;28.47;;;12.10;;
13741;SDS011;8461;52.356;10.704;2023-02-15T00:21:55;59.80;;;16.73;;
13741;SDS011;8461;52.356;10.704;2023-02-15T00:24:21;53.87;;;15.83;;
13741;SDS011;8461;52.356;10.704;2023-02-15T00:26:47;30.43;;;11.17;;
13741;SDS011;8461;52.356;10.704;2023-02-15T00:29:13;29.03;;;11.00;;
13741;SDS011;8461;52.356;10.704;2023-02-15T00:31:40;23.93;;;10.63;;
13741;SDS011;8461;52.356;10.704;2023-02-15T00:34:16;19.40;;;10.33;;
13741;SDS011;8461;52.356;10.704;2023-02-15T00:36:47;18.27;;;10.03;;
13741;SDS011;8461;52.356;10.704;2023-02-15T00:39:13;22.00;;;9.30;;
13741;SDS011;8461;52.356;10.704;2023-02-15T00:41:39;19.80;;;8.60;;
13741;SDS011;8461;52.356;10.704;2023-02-15T00:44:05;17.27;;;8.83;;
13741;SDS011;8461;52.356;10.704;2023-02-15T00:46:31;20.43;;;9.47;;
13741;SDS011;8461;52.356;10.704;2023-02-15T00:48:57;21.57;;;10.80;;
13741;SDS011;8461;52.356;10.704;2023-02-15T00:51:22;25.93;;;11.00;;
13741;SDS011;8461;52.356;10.704;2023-02-15T00:53:49;21.77;;;11.63;;
13741;SDS011;8461;52.356;10.704;2023-02-15T00:56:14;23.63;;;10.67;;
13741;SDS011;8461;52.356;10.704;2023-02-15T00:58:40;24.87;;;10.57;;
13741;SDS011;8461;52.356;10.704;2023-02-15T01:01:07;38.13;;;11.17;;
13741;SDS011;8461;52.356;10.704;2023-02-15T01:03:38;30.77;;;10.33;;
13741;SDS011;8461;52.356;10.704;2023-02-15T01:06:04;51.43;;;12.33;;
13741;SDS011;8461;52.356;10.704;2023-02-15T01:08:30;51.97;;;12.20;;
13741;SDS011;8461;52.356;10.704;2023-02-15T01:10:56;63.43;;;13.33;;
13741;SDS011;8461;52.356;10.704;2023-02-15T01:13:22;53.53;;;13.57;;
13741;SDS011;8461;52.356;10.704;2023-02-15T01:15:54;45.73;;;11.47;;
13741;SDS011;8461;52.356;10.704;2023-02-15T01:18:20;44.27;;;11.50;;
13741;SDS011;8461;52.356;10.704;2023-02-15T01:20:46;56.47;;;12.37;;
13741;SDS011;8461;52.356;10.704;2023-02-15T01:23:12;55.37;;;12.57;;
13741;SDS011;8461;52.356;10.704;2023-02-15T01:25:38;48.43;;;12.47;;
13741;SDS011;8461;52.356;10.704;2023-02-15T01:28:03;40.83;;;12.27;;
13741;SDS011;8461;52.356;10.704;2023-02-15T01:30:29;50.03;;;11.27;;
13741;SDS011;8461;52.356;10.704;2023-02-15T01:32:55;22.93;;;10.70;;
13741;SDS011;8461;52.356;10.704;2023-02-15T01:35:21;42.33;;;11.00;;
13741;SDS011;8461;52.356;10.704;2023-02-15T01:37:46;22.03;;;10.73;;
13741;SDS011;8461;52.356;10.704;2023-02-15T01:40:13;36.20;;;10.10;;
13741;SDS011;8461;52.356;10.704;2023-02-15T01:42:40;22.47;;;9.80;;
13741;SDS011;8461;52.356;10.704;2023-02-15T01:47:58;31.03;;;10.53;;
13741;SDS011;8461;52.356;10.704;2023-02-15T01:50:37;30.80;;;9.80;;
13741;SDS011;8461;52.356;10.704;2023-02-15T01:53:06;28.47;;;9.90;;
13741;SDS011;8461;52.356;10.704;2023-02-15T01:55:34;25.57;;;9.53;;
13741;SDS011;8461;52.356;10.704;2023-02-15T01:58:04;23.10;;;10.00;;
13741;SDS011;8461;52.356;10.704;2023-02-15T02:00:30;23.33;;;10.60;;
13741;SDS011;8461;52.356;10.704;2023-02-15T02:02:56;17.20;;;9.53;;
13741;SDS011;8461;52.356;10.704;2023-02-15T02:05:22;12.13;;;8.70;;
13741;SDS011;8461;52.356;10.704;2023-02-15T02:07:49;17.63;;;9.57;;
13741;SDS011;8461;52.356;10.704;2023-02-15T02:10:18;15.00;;;9.77;;
13741;SDS011;8461;52.356;10.704;2023-02-15T02:12:46;19.87;;;10.33;;
13741;SDS011;8461;52.356;10.704;2023-02-15T02:15:13;16.10;;;9.50;;
13741;SDS011;8461;52.356;10.704;2023-02-15T02:29:07;20.40;;;9.63;;
13741;SDS011;8461;52.356;10.704;2023-02-15T02:32:16;21.90;;;9.87;;
13741;SDS011;8461;52.356;10.704;2023-02-15T02:35:13;21.63;;;9.93;;
13741;SDS011;8461;52.356;10.704;2023-02-15T02:37:52;18.73;;;9.27;;
13741;SDS011;8461;52.356;10.704;2023-02-15T02:43:24;21.93;;;9.00;;
13741;SDS011;8461;52.356;10.704;2023-02-15T02:48:24;27.07;;;9.23;;
13741;SDS011;8461;52.356;10.704;2023-02-15T02:50:52;18.77;;;8.70;;
13741;SDS011;8461;52.356;10.704;2023-02-15T02:53:18;15.13;;;8.87;;
13741;SDS011;8461;52.356;10.704;2023-02-15T02:55:47;10.90;;;7.93;;
13741;SDS011;8461;52.356;10.704;2023-02-15T03:01:15;13.93;;;10.33;;
13741;SDS011;8461;52.356;10.704;2023-02-15T03:03:47;13.40;;;10.00;;
13741;SDS011;8461;52.356;10.704;2023-02-15T03:06:26;15.20;;;10.00;;
13741;SDS011;8461;52.356;10.704;2023-02-15T03:09:01;15.67;;;9.97;;
13741;SDS011;8461;52.356;10.704;2023-02-15T03:11:32;16.10;;;11.07;;
13741;SDS011;8461;52.356;10.704;2023-02-15T03:13:58;28.10;;;11.57;;
13741;SDS011;8461;52.356;10.704;2023-02-15T03:16:24;30.57;;;11.60;;
13741;SDS011;8461;52.356;10.704;2023-02-15T03:21:45;35.70;;;12.40;;
13741;SDS011;8461;52.356;10.704;2023-02-15T03:24:14;42.80;;;11.30;;
13741;SDS011;8461;52.356;10.704;2023-02-15T03:26:45;17.73;;;10.97;;
13741;SDS011;8461;52.356;10.704;2023-02-15T03:29:15;28.20;;;12.20;;
13741;SDS011;8461;52.356;10.704;2023-02-15T03:31:42;55.43;;;12.43;;
13741;SDS011;8461;52.356;10.704;2023-02-15T03:34:13;46.00;;;13.03;;
13741;SDS011;8461;52.356;10.704;2023-02-15T03:36:44;45.20;;;12.63;;
13741;SDS011;8461;52.356;10.704;2023-02-15T03:41:51;18.63;;;11.10;;
13741;SDS011;8461;52.356;10.704;2023-02-15T03:44:32;28.33;;;10.77;;
13741;SDS011;8461;52.356;10.704;2023-02-15T03:48:01;21.80;;;10.40;;
13741;SDS011;8461;52.356;10.704;2023-02-15T03:50:13;33.17;;;11.30;;
13741;SDS011;8461;52.356;10.704;2023-02-15T03:53:05;19.87;;;10.80;;
13741;SDS011;8461;52.356;10.704;2023-02-15T03:55:34;40.20;;;11.83;;
13741;SDS011;8461;52.356;10.704;2023-02-15T03:58:00;22.67;;;10.70;;
13741;SDS011;8461;52.356;10.704;2023-02-15T04:00:59;28.50;;;11.27;;
13741;SDS011;8461;52.356;10.704;2023-02-15T04:04:28;18.50;;;9.70;;
13741;SDS011;8461;52.356;10.704;2023-02-15T04:07:01;18.03;;;8.93;;
13741;SDS011;8461;52.356;10.704;2023-02-15T04:09:28;14.63;;;9.77;;
13741;SDS011;8461;52.356;10.704;2023-02-15T04:12:12;16.97;;;10.47;;
13741;SDS011;8461;52.356;10.704;2023-02-15T04:14:38;14.67;;;9.13;;
13741;SDS011;8461;52.356;10.704;2023-02-15T04:17:22;20.13;;;9.37;;
13741;SDS011;8461;52.356;10.704;2023-02-15T04:19:47;11.87;;;8.83;;
13741;SDS011;8461;52.356;10.704;2023-02-15T04:22:31;11.03;;;8.27;;
13741;SDS011;8461;52.356;10.704;2023-02-15T04:25:15;11.93;;;8.13;;
13741;SDS011;8461;52.356;10.704;2023-02-15T04:27:45;13.60;;;8.97;;
13741;SDS011;8461;52.356;10.704;2023-02-15T04:30:15;14.40;;;8.90;;
13741;SDS011;8461;52.356;10.704;2023-02-15T04:32:43;31.60;;;9.90;;
13741;SDS011;8461;52.356;10.704;2023-02-15T04:35:09;22.40;;;9.43;;
13741;SDS011;8461;52.356;10.704;2023-02-15T04:37:36;13.20;;;9.23;;
13741;SDS011;8461;52.356;10.704;2023-02-15T04:40:03;15.63;;;9.40;;
13741;SDS011;8461;52.356;10.704;2023-02-15T04:42:30;15.77;;;9.17;;
13741;SDS011;8461;52.356;10.704;2023-02-15T04:44:55;16.60;;;10.77;;
13741;SDS011;8461;52.356;10.704;2023-02-15T04:47:21;15.73;;;9.90;;
13741;SDS011;8461;52.356;10.704;2023-02-15T04:49:47;20.70;;;11.43;;
13741;SDS011;8461;52.356;10.704;2023-02-15T04:52:13;47.20;;;13.27;;
13741;SDS011;8461;52.356;10.704;2023-02-15T04:54:38;41.80;;;13.93;;
13741;SDS011;8461;52.356;10.704;2023-02-15T04:57:04;33.87;;;12.73;;
13741;SDS011;8461;52.356;10.704;2023-02-15T04:59:30;59.17;;;14.80;;
13741;SDS011;8461;52.356;10.704;2023-02-15T05:01:56;33.47;;;13.77;;
13741;SDS011;8461;52.356;10.704;2023-02-15T05:04:21;23.13;;;12.80;;
13741;SDS011;8461;52.356;10.704;2023-02-15T05:06:47;36.73;;;14.53;;
13741;SDS011;8461;52.356;10.704;2023-02-15T05:09:13;28.23;;;13.13;;
13741;SDS011;8461;52.356;10.704;2023-02-15T05:11:38;19.30;;;11.93;;
13741;SDS011;8461;52.356;10.704;2023-02-15T05:14:04;34.73;;;12.67;;
13741;SDS011;8461;52.356;10.704;2023-02-15T05:16:30;35.20;;;13.30;;
13741;SDS011;8461;52.356;10.704;2023-02-15T05:18:55;36.30;;;12.40;;
13741;SDS011;8461;52.356;10.704;2023-02-15T05:21:21;30.97;;;11.50;;
13741;SDS011;8461;52.356;10.704;2023-02-15T05:23:47;33.87;;;11.83;;
13741;SDS011;8461;52.356;10.704;2023-02-15T05:26:13;25.57;;;11.53;;
13741;SDS011;8461;52.356;10.704;2023-02-15T05:29:01;34.43;;;11.50;;
13741;SDS011;8461;52.356;10.704;2023-02-15T05:31:26;26.53;;;13.00;;
13741;SDS011;8461;52.356;10.704;2023-02-15T05:33:52;26.60;;;12.60;;
13741;SDS011;8461;52.356;10.704;2023-02-15T05:36:18;29.17;;;12.37;;
13741;SDS011;8461;52.356;10.704;2023-02-15T05:38:43;21.87;;;11.87;;
13741;SDS011;8461;52.356;10.704;2023-02-15T05:41:09;20.70;;;11.97;;
13741;SDS011;8461;52.356;10.704;2023-02-15T05:43:35;26.27;;;12.67;;
13741;SDS011;8461;52.356;10.704;2023-02-15T05:46:01;18.80;;;11.30;;
13741;SDS011;8461;52.356;10.704;2023-02-15T05:48:28;18.60;;;11.87;;
13741;SDS011;8461;52.356;10.704;2023-02-15T05:50:57;25.23;;;12.17;;
13741;SDS011;8461;52.356;10.704;2023-02-15T05:53:24;20.00;;;11.57;;
13741;SDS011;8461;52.356;10.704;2023-02-15T05:55:50;29.70;;;13.00;;
13741;SDS011;8461;52.356;10.704;2023-02-15T05:58:16;19.53;;;12.33;;
13741;SDS011;8461;52.356;10.704;2023-02-15T06:00:41;31.13;;;13.27;;
13741;SDS011;8461;52.356;10.704;2023-02-15T06:03:07;28.17;;;13.57;;
13741;SDS011;8461;52.356;10.704;2023-02-15T06:05:32;22.10;;;12.83;;
13741;SDS011;8461;52.356;10.704;2023-02-15T06:07:58;23.57;;;12.37;;
13741;SDS011;8461;52.356;10.704;2023-02-15T06:10:23;18.30;;;10.83;;
13741;SDS011;8461;52.356;10.704;2023-02-15T06:12:49;22.27;;;12.07;;
13741;SDS011;8461;52.356;10.704;2023-02-15T06:15:14;21.73;;;12.53;;
13741;SDS011;8461;52.356;10.704;2023-02-15T06:17:41;22.63;;;11.60;;
13741;SDS011;8461;52.356;10.704;2023-02-15T06:20:07;23.33;;;13.40;;
13741;SDS011;8461;52.356;10.704;2023-02-15T06:22:33;30.97;;;14.37;;
13741;SDS011;8461;52.356;10.704;2023-02-15T06:24:59;26.40;;;13.97;;
13741;SDS011;8461;52.356;10.704;2023-02-15T06:27:25;30.20;;;14.17;;
13741;SDS011;8461;52.356;10.704;2023-02-15T06:29:50;44.77;;;21.60;;
13741;SDS011;8461;52.356;10.704;2023-02-15T06:32:16;30.27;;;16.23;;
13741;SDS011;8461;52.356;10.704;2023-02-15T06:34:41;29.13;;;15.27;;
13741;SDS011;8461;52.356;10.704;2023-02-15T06:37:07;37.03;;;18.70;;
13741;SDS011;8461;52.356;10.704;2023-02-15T06:39:33;38.90;;;18.23;;
13741;SDS011;8461;52.356;10.704;2023-02-15T06:41:59;33.23;;;18.73;;
13741;SDS011;8461;52.356;10.704;2023-02-15T06:44:24;64.40;;;30.90;;
13741;SDS011;8461;52.356;10.704;2023-02-15T06:46:50;203.37;;;84.43;;
13741;SDS011;8461;52.356;10.704;2023-02-15T06:49:16;116.20;;;51.83;;
13741;SDS011;8461;52.356;10.704;2023-02-15T06:51:41;207.70;;;85.13;;
13741;SDS011;8461;52.356;10.704;2023-02-15T06:54:07;180.20;;;79.83;;
13741;SDS011;8461;52.356;10.704;2023-02-15T06:56:32;113.93;;;58.70;;
13741;SDS011;8461;52.356;10.704;2023-02-15T06:58:58;76.17;;;40.60;;
13741;SDS011;8461;52.356;10.704;2023-02-15T07:01:23;47.10;;;25.77;;
13741;SDS011;8461;52.356;10.704;2023-02-15T07:03:49;184.20;;;94.87;;
13741;SDS011;8461;52.356;10.704;2023-02-15T07:06:15;140.50;;;70.47;;
13741;SDS011;8461;52.356;10.704;2023-02-15T07:08:40;100.97;;;53.33;;
13741;SDS011;8461;52.356;10.704;2023-02-15T07:11:06;44.57;;;27.70;;
13741;SDS011;8461;52.356;10.704;2023-02-15T07:13:50;35.23;;;21.00;;
13741;SDS011;8461;52.356;10.704;2023-02-15T07:16:17;32.83;;;21.03;;
13741;SDS011;8461;52.356;10.704;2023-02-15T07:18:43;29.20;;;17.33;;
13741;SDS011;8461;52.356;10.704;2023-02-15T07:21:09;27.53;;;15.30;;
13741;SDS011;8461;52.356;10.704;2023-02-15T07:23:35;24.60;;;15.93;;
13741;SDS011;8461;52.356;10.704;2023-02-15T07:26:02;29.23;;;16.90;;
13741;SDS011;8461;52.356;10.704;2023-02-15T07:28:28;26.77;;;15.90;;
13741;SDS011;8461;52.356;10.704;2023-02-15T07:30:54;26.97;;;16.90;;
13741;SDS011;8461;52.356;10.704;2023-02-15T07:33:19;26.80;;;18.17;;
13741;SDS011;8461;52.356;10.704;2023-02-15T07:35:55;24.80;;;15.27;;
13741;SDS011;8461;52.356;10.704;2023-02-15T07:38:23;28.10;;;15.73;;
13741;SDS011;8461;52.356;10.704;2023-02-15T07:40:49;25.07;;;14.83;;
13741;SDS011;8461;52.356;10.704;2023-02-15T07:43:15;24.63;;;15.07;;
13741;SDS011;8461;52.356;10.704;2023-02-15T07:45:41;25.60;;;15.10;;
13741;SDS011;8461;52.356;10.704;2023-02-15T07:48:07;25.43;;;14.10;;
13741;SDS011;8461;52.356;10.704;2023-02-15T07:50:33;20.67;;;13.43;;
13741;SDS011;8461;52.356;10.704;2023-02-15T07:53:00;24.77;;;14.50;;
13741;SDS011;8461;52.356;10.704;2023-02-15T07:55:27;25.97;;;14.43;;
13741;SDS011;8461;52.356;10.704;2023-02-15T07:57:52;21.80;;;13.80;;
13741;SDS011;8461;52.356;10.704;2023-02-15T08:00:19;26.83;;;14.47;;
13741;SDS011;8461;52.356;10.704;2023-02-15T08:02:50;27.53;;;15.37;;
13741;SDS011;8461;52.356;10.704;2023-02-15T08:05:36;23.47;;;14.53;;
13741;SDS011;8461;52.356;10.704;2023-02-15T08:08:02;26.73;;;16.43;;
13741;SDS011;8461;52.356;10.704;2023-02-15T08:10:28;24.03;;;14.67;;
13741;SDS011;8461;52.356;10.704;2023-02-15T08:13:12;25.63;;;15.57;;
13741;SDS011;8461;52.356;10.704;2023-02-15T08:15:38;24.43;;;14.50;;
13741;SDS011;8461;52.356;10.704;2023-02-15T08:18:03;25.50;;;15.67;;
13741;SDS011;8461;52.356;10.704;2023-02-15T08:23:51;23.67;;;14.07;;
13741;SDS011;8461;52.356;10.704;2023-02-15T08:26:17;27.57;;;16.60;;
13741;SDS011;8461;52.356;10.704;2023-02-15T08:28:43;29.83;;;16.27;;
13741;SDS011;8461;52.356;10.704;2023-02-15T08:31:10;24.80;;;15.43;;
13741;SDS011;8461;52.356;10.704;2023-02-15T08:33:37;25.43;;;16.90;;
13741;SDS011;8461;52.356;10.704;2023-02-15T08:36:14;29.50;;;17.80;;
13741;SDS011;8461;52.356;10.704;2023-02-15T08:38:41;28.43;;;15.50;;
13741;SDS011;8461;52.356;10.704;2023-02-15T08:43:38;26.03;;;15.20;;
13741;SDS011;8461;52.356;10.704;2023-02-15T08:46:05;27.77;;;15.80;;
13741;SDS011;8461;52.356;10.704;2023-02-15T08:48:32;25.53;;;15.23;;
13741;SDS011;8461;52.356;10.704;2023-02-15T08:50:57;28.00;;;16.17;;
13741;SDS011;8461;52.356;10.704;2023-02-15T08:53:23;27.83;;;17.23;;
13741;SDS011;8461;52.356;10.704;2023-02-15T08:55:55;32.77;;;17.13;;
13741;SDS011;8461;52.356;10.704;2023-02-15T08:58:22;26.00;;;16.33;;
13741;SDS011;8461;52.356;10.704;2023-02-15T09:00:48;24.50;;;15.17;;
13741;SDS011;8461;52.356;10.704;2023-02-15T09:03:14;25.33;;;15.77;;
13741;SDS011;8461;52.356;10.704;2023-02-15T09:05:39;28.00;;;17.43;;
13741;SDS011;8461;52.356;10.704;2023-02-15T09:08:05;26.37;;;17.30;;
13741;SDS011;8461;52.356;10.704;2023-02-15T09:10:30;28.23;;;16.77;;
13741;SDS011;8461;52.356;10.704;2023-02-15T09:12:56;25.40;;;15.50;;
13741;SDS011;8461;52.356;10.704;2023-02-15T09:15:21;25.80;;;16.00;;
13741;SDS011;8461;52.356;10.704;2023-02-15T09:17:47;24.57;;;15.70;;
13741;SDS011;8461;52.356;10.704;2023-02-15T09:20:12;26.00;;;15.83;;
13741;SDS011;8461;52.356;10.704;2023-02-15T09:22:38;24.73;;;15.13;;
13741;SDS011;8461;52.356;10.704;2023-02-15T09:25:03;26.37;;;16.83;;
13741;SDS011;8461;52.356;10.704;2023-02-15T09:27:29;26.43;;;16.87;;
13741;SDS011;8461;52.356;10.704;2023-02-15T09:29:55;23.53;;;15.27;;
13741;SDS011;8461;52.356;10.704;2023-02-15T09:32:20;27.87;;;16.70;;
13741;SDS011;8461;52.356;10.704;2023-02-15T09:34:47;23.50;;;15.43;;
13741;SDS011;8461;52.356;10.704;2023-02-15T09:37:12;21.50;;;13.87;;
13741;SDS011;8461;52.356;10.704;2023-02-15T09:39:39;25.03;;;15.30;;
13741;SDS011;8461;52.356;10.704;2023-02-15T09:42:11;22.53;;;14.00;;
13741;SDS011;8461;52.356;10.704;2023-02-15T09:55:38;18.80;;;12.57;;
13741;SDS011;8461;52.356;10.704;2023-02-15T10:07:02;18.90;;;12.37;;
13741;SDS011;8461;52.356;10.704;2023-02-15T10:28:45;15.57;;;9.93;;
13741;SDS011;8461;52.356;10.704;2023-02-15T10:31:23;16.17;;;10.07;;
13741;SDS011;8461;52.356;10.704;2023-02-15T10:36:46;15.87;;;11.13;;
13741;SDS011;8461;52.356;10.704;2023-02-15T10:50:26;17.17;;;9.93;;
13741;SDS011;8461;52.356;10.704;2023-02-15T10:58:51;12.90;;;9.47;;
13741;SDS011;8461;52.356;10.704;2023-02-15T11:06:38;12.00;;;8.00;;
13741;SDS011;8461;52.356;10.704;2023-02-15T11:09:10;12.93;;;7.77;;
13741;SDS011;8461;52.356;10.704;2023-02-15T11:11:38;13.07;;;8.60;;
13741;SDS011;8461;52.356;10.704;2023-02-15T11:14:13;10.30;;;7.50;;
13741;SDS011;8461;52.356;10.704;2023-02-15T11:16:44;13.97;;;8.30;;
13741;SDS011;8461;52.356;10.704;2023-02-15T11:19:14;14.30;;;8.40;;
13741;SDS011;8461;52.356;10.704;2023-02-15T11:21:53;12.60;;;8.17;;
13741;SDS011;8461;52.356;10.704;2023-02-15T11:24:24;12.73;;;7.70;;
13741;SDS011;8461;52.356;10.704;2023-02-15T11:29:30;11.80;;;7.93;;
13741;SDS011;8461;52.356;10.704;2023-02-15T11:34:38;10.03;;;7.13;;
13741;SDS011;8461;52.356;10.704;2023-02-15T11:37:13;8.70;;;6.90;;
13741;SDS011;8461;52.356;10.704;2023-02-15T11:39:43;9.10;;;7.37;;
13741;SDS011;8461;52.356;10.704;2023-02-15T11:42:16;10.37;;;7.80;;
13741;SDS011;8461;52.356;10.704;2023-02-15T11:47:23;10.70;;;7.37;;
13741;SDS011;8461;52.356;10.704;2023-02-15T11:49:49;9.67;;;7.37;;
13741;SDS011;8461;52.356;10.704;2023-02-15T11:52:15;8.90;;;6.97;;
13741;SDS011;8461;52.356;10.704;2023-02-15T11:54:45;8.70;;;5.90;;
13741;SDS011;8461;52.356;10.704;2023-02-15T11:57:35;8.40;;;6.13;;
13741;SDS011;8461;52.356;10.704;2023-02-15T12:02:53;5.70;;;4.33;;
13741;SDS011;8461;52.356;10.704;2023-02-15T12:05:23;5.60;;;4.07;;
13741;SDS011;8461;52.356;10.704;2023-02-15T12:07:52;6.13;;;4.17;;
13741;SDS011;8461;52.356;10.704;2023-02-15T12:10:22;10.10;;;4.20;;
13741;SDS011;8461;52.356;10.704;2023-02-15T12:13:10;5.50;;;4.23;;
13741;SDS011;8461;52.356;10.704;2023-02-15T12:15:37;5.17;;;4.27;;
13741;SDS011;8461;52.356;10.704;2023-02-15T12:21:08;5.47;;;4.47;;
13741;SDS011;8461;52.356;10.704;2023-02-15T12:23:43;7.10;;;4.40;;
13741;SDS011;8461;52.356;10.704;2023-02-15T12:26:13;5.70;;;4.27;;
13741;SDS011;8461;52.356;10.704;2023-02-15T12:28:43;5.57;;;4.17;;
13741;SDS011;8461;52.356;10.704;2023-02-15T12:31:32;8.13;;;4.70;;
13741;SDS011;8461;52.356;10.704;2023-02-15T12:34:08;4.97;;;4.03;;
13741;SDS011;8461;52.356;10.704;2023-02-15T12:36:47;7.10;;;4.73;;
13741;SDS011;8461;52.356;10.704;2023-02-15T12:41:57;5.87;;;4.47;;
13741;SDS011;8461;52.356;10.704;2023-02-15T12:44:29;7.17;;;4.40;;
13741;SDS011;8461;52.356;10.704;2023-02-15T12:46:58;5.97;;;4.77;;
13741;SDS011;8461;52.356;10.704;2023-02-15T12:49:28;5.13;;;3.77;;
13741;SDS011;8461;52.356;10.704;2023-02-15T12:52:01;7.43;;;5.10;;
13741;SDS011;8461;52.356;10.704;2023-02-15T12:54:47;6.83;;;4.67;;
13741;SDS011;8461;52.356;10.704;2023-02-15T12:59:56;7.37;;;4.57;;
13741;SDS011;8461;52.356;10.704;2023-02-15T13:03:14;5.27;;;4.10;;
13741;SDS011;8461;52.356;10.704;2023-02-15T13:08:03;6.73;;;4.77;;
13741;SDS011;8461;52.356;10.704;2023-02-15T13:10:54;11.43;;;5.40;;
13741;SDS011;8461;52.356;10.704;2023-02-15T13:13:24;6.90;;;5.40;;
13741;SDS011;8461;52.356;10.704;2023-02-15T13:15:57;6.73;;;5.37;;
13741;SDS011;8461;52.356;10.704;2023-02-15T13:20:56;7.73;;;5.40;;
13741;SDS011;8461;52.356;10.704;2023-02-15T13:23:27;8.23;;;5.63;;
13741;SDS011;8461;52.356;10.704;2023-02-15T13:25:58;8.30;;;5.70;;
13741;SDS011;8461;52.356;10.704;2023-02-15T13:28:31;7.67;;;5.70;;
13741;SDS011;8461;52.356;10.704;2023-02-15T13:31:13;8.13;;;5.63;;
13741;SDS011;8461;52.356;10.704;2023-02-15T13:33:41;7.30;;;5.13;;
13741;SDS011;8461;52.356;10.704;2023-02-15T13:36:21;10.40;;;5.60;;
13741;SDS011;8461;52.356;10.704;2023-02-15T13:41:53;8.83;;;5.63;;
13741;SDS011;8461;52.356;10.704;2023-02-15T13:44:48;7.47;;;5.27;;
13741;SDS011;8461;52.356;10.704;2023-02-15T13:47:50;8.63;;;6.43;;
13741;SDS011;8461;52.356;10.704;2023-02-15T14:01:55;9.93;;;6.33;;
13741;SDS011;8461;52.356;10.704;2023-02-15T14:07:23;7.90;;;6.30;;
13741;SDS011;8461;52.356;10.704;2023-02-15T14:13:12;8.57;;;6.50;;
13741;SDS011;8461;52.356;10.704;2023-02-15T14:16:03;10.53;;;6.53;;
13741;SDS011;8461;52.356;10.704;2023-02-15T14:18:36;9.20;;;5.77;;
13741;SDS011;8461;52.356;10.704;2023-02-15T14:21:34;10.37;;;6.30;;
13741;SDS011;8461;52.356;10.704;2023-02-15T14:29:20;9.33;;;6.73;;
13741;SDS011;8461;52.356;10.704;2023-02-15T14:32:15;9.93;;;7.37;;
13741;SDS011;8461;52.356;10.704;2023-02-15T14:34:55;8.27;;;6.73;;
13741;SDS011;8461;52.356;10.704;2023-02-15T14:37:26;8.77;;;6.47;;
13741;SDS011;8461;52.356;10.704;2023-02-15T14:40:32;10.53;;;6.70;;
13741;SDS011;8461;52.356;10.704;2023-02-15T14:49:13;9.20;;;7.43;;
13741;SDS011;8461;52.356;10.704;2023-02-15T14:54:52;10.83;;;7.73;;
13741;SDS011;8461;52.356;10.704;2023-02-15T15:00:26;11.50;;;7.60;;
13741;SDS011;8461;52.356;10.704;2023-02-15T15:02:15;9.93;;;6.97;;
13741;SDS011;8461;52.356;10.704;2023-02-15T15:04:45;10.57;;;8.13;;
13741;SDS011;8461;52.356;10.704;2023-02-15T15:07:23;11.67;;;8.23;;
13741;SDS011;8461;52.356;10.704;2023-02-15T15:10:00;9.60;;;7.30;;
13741;SDS011;8461;52.356;10.704;2023-02-15T15:12:48;12.77;;;8.93;;
13741;SDS011;8461;52.356;10.704;2023-02-15T15:15:33;9.57;;;7.87;;
13741;SDS011;8461;52.356;10.704;2023-02-15T15:18:09;13.10;;;8.57;;
13741;SDS011;8461;52.356;10.704;2023-02-15T15:20:55;12.50;;;8.07;;
13741;SDS011;8461;52.356;10.704;2023-02-15T15:36:44;12.53;;;7.60;;
13741;SDS011;8461;52.356;10.704;2023-02-15T15:39:39;11.87;;;7.77;;
13741;SDS011;8461;52.356;10.704;2023-02-15T15:50:40;12.50;;;8.17;;
13741;SDS011;8461;52.356;10.704;2023-02-15T15:53:10;10.57;;;8.20;;
13741;SDS011;8461;52.356;10.704;2023-02-15T15:55:52;10.47;;;7.07;;
13741;SDS011;8461;52.356;10.704;2023-02-15T15:58:23;12.23;;;8.07;;
13741;SDS011;8461;52.356;10.704;2023-02-15T16:00:50;13.90;;;8.57;;
13741;SDS011;8461;52.356;10.704;2023-02-15T16:03:21;13.67;;;8.13;;
13741;SDS011;8461;52.356;10.704;2023-02-15T16:05:49;13.63;;;8.40;;
13741;SDS011;8461;52.356;10.704;2023-02-15T16:08:30;12.70;;;8.07;;
13741;SDS011;8461;52.356;10.704;2023-02-15T16:11:13;11.63;;;7.80;;
13741;SDS011;8461;52.356;10.704;2023-02-15T16:13:43;12.77;;;8.30;;
13741;SDS011;8461;52.356;10.704;2023-02-15T16:16:11;11.83;;;8.37;;
13741;SDS011;8461;52.356;10.704;2023-02-15T16:18:38;14.13;;;9.30;;
13741;SDS011;8461;52.356;10.704;2023-02-15T16:21:12;13.60;;;8.47;;
13741;SDS011;8461;52.356;10.704;2023-02-15T16:29:26;12.00;;;8.50;;
13741;SDS011;8461;52.356;10.704;2023-02-15T16:34:30;40.77;;;21.20;;
13741;SDS011;8461;52.356;10.704;2023-02-15T16:39:43;55.23;;;24.93;;
13741;SDS011;8461;52.356;10.704;2023-02-15T16:42:11;47.57;;;23.40;;
13741;SDS011;8461;52.356;10.704;2023-02-15T16:44:37;43.13;;;22.50;;
13741;SDS011;8461;52.356;10.704;2023-02-15T16:47:05;21.77;;;11.13;;
13741;SDS011;8461;52.356;10.704;2023-02-15T16:49:47;23.17;;;12.70;;
13741;SDS011;8461;52.356;10.704;2023-02-15T16:52:18;17.80;;;10.63;;
13741;SDS011;8461;52.356;10.704;2023-02-15T16:54:59;14.07;;;9.87;;
13741;SDS011;8461;52.356;10.704;2023-02-15T16:57:31;14.73;;;9.70;;
13741;SDS011;8461;52.356;10.704;2023-02-15T17:00:02;16.33;;;9.30;;
13741;SDS011;8461;52.356;10.704;2023-02-15T17:02:40;20.37;;;10.43;;
13741;SDS011;8461;52.356;10.704;2023-02-15T17:05:42;16.80;;;9.70;;
13741;SDS011;8461;52.356;10.704;2023-02-15T17:10:42;13.73;;;9.17;;
13741;SDS011;8461;52.356;10.704;2023-02-15T17:13:25;16.10;;;8.87;;
13741;SDS011;8461;52.356;10.704;2023-02-15T17:18:24;17.10;;;9.37;;
13741;SDS011;8461;52.356;10.704;2023-02-15T17:20:53;19.73;;;10.10;;
13741;SDS011;8461;52.356;10.704;2023-02-15T17:25:48;11.27;;;8.50;;
13741;SDS011;8461;52.356;10.704;2023-02-15T17:28:18;17.03;;;9.87;;
13741;SDS011;8461;52.356;10.704;2023-02-15T17:30:45;14.50;;;9.47;;
13741;SDS011;8461;52.356;10.704;2023-02-15T17:38:59;14.10;;;8.83;;
13741;SDS011;8461;52.356;10.704;2023-02-15T17:41:29;18.90;;;10.40;;
13741;SDS011;8461;52.356;10.704;2023-02-15T17:43:56;13.10;;;8.97;;
13741;SDS011;8461;52.356;10.704;2023-02-15T17:46:22;19.97;;;10.60;;
13741;SDS011;8461;52.356;10.704;2023-02-15T17:48:52;14.20;;;9.77;;
13741;SDS011;8461;52.356;10.704;2023-02-15T17:51:20;17.30;;;10.33;;
13741;SDS011;8461;52.356;10.704;2023-02-15T17:53:46;18.67;;;9.73;;
13741;SDS011;8461;52.356;10.704;2023-02-15T17:56:34;14.93;;;9.87;;
13741;SDS011;8461;52.356;10.704;2023-02-15T17:59:00;13.50;;;9.03;;
13741;SDS011;8461;52.356;10.704;2023-02-15T18:01:26;16.07;;;8.50;;
13741;SDS011;8461;52.356;10.704;2023-02-15T18:04:11;16.30;;;8.87;;
13741;SDS011;8461;52.356;10.704;2023-02-15T18:06:56;15.23;;;9.80;;
13741;SDS011;8461;52.356;10.704;2023-02-15T18:09:40;13.20;;;8.40;;
13741;SDS011;8461;52.356;10.704;2023-02-15T18:12:25;12.67;;;8.30;;
13741;SDS011;8461;52.356;10.704;2023-02-15T18:14:53;14.70;;;8.53;;